createdAt,value
2023-05-25T00:00:12.917Z,10.24
2023-05-25T00:02:39.813Z,10.21
2023-05-25T00:05:09.106Z,10.16
2023-05-25T00:07:35.649Z,10.13
2023-05-25T00:10:02.051Z,10.08
2023-05-25T00:12:28.437Z,10.00
2023-05-25T00:14:55.103Z,9.98
2023-05-25T00:17:21.840Z,9.93
2023-05-25T00:19:48.639Z,9.90
2023-05-25T00:22:15.197Z,9.90
2023-05-25T00:24:41.678Z,9.87
2023-05-25T00:27:08.176Z,9.87
2023-05-25T00:29:36.125Z,9.90
2023-05-25T00:32:03.168Z,9.87
2023-05-25T00:34:29.567Z,9.81
2023-05-25T00:36:56.006Z,9.76
2023-05-25T00:39:22.641Z,9.75
2023-05-25T00:41:50.129Z,9.75
2023-05-25T00:44:21.205Z,9.71
2023-05-25T00:46:50.667Z,9.65
2023-05-25T00:49:18.952Z,9.56
2023-05-25T00:51:47.730Z,9.48
2023-05-25T00:54:16.074Z,9.39
2023-05-25T00:56:47.036Z,9.30
2023-05-25T00:59:20.753Z,9.27
2023-05-25T01:01:48.913Z,9.31
2023-05-25T01:04:17.558Z,9.29
2023-05-25T01:06:48.546Z,9.27
2023-05-25T01:09:18.244Z,9.26
2023-05-25T01:11:48.649Z,9.23
2023-05-25T01:14:19.130Z,9.21
2023-05-25T01:16:46.059Z,9.21
2023-05-25T01:19:12.508Z,9.21
2023-05-25T01:21:49.821Z,9.17
2023-05-25T01:24:40.769Z,9.10
2023-05-25T01:27:22.778Z,9.05
2023-05-25T01:29:49.389Z,8.96
2023-05-25T01:32:18.155Z,8.93
2023-05-25T01:34:45.351Z,8.93
2023-05-25T01:37:13.537Z,8.92
2023-05-25T01:39:41.238Z,8.91
2023-05-25T01:42:07.771Z,8.89
2023-05-25T01:44:34.686Z,8.91
2023-05-25T01:47:10.258Z,8.92
2023-05-25T01:49:46.247Z,8.96
2023-05-25T01:52:22.102Z,8.99
2023-05-25T01:54:55.109Z,8.98
2023-05-25T01:57:22.394Z,8.97
2023-05-25T01:59:51.669Z,8.93
2023-05-25T02:02:19.314Z,8.91
2023-05-25T02:04:46.164Z,8.93
2023-05-25T02:07:12.786Z,8.96
2023-05-25T02:09:39.282Z,8.97
2023-05-25T02:12:06.422Z,8.93
2023-05-25T02:14:32.818Z,8.90
2023-05-25T02:17:01.979Z,8.81
2023-05-25T02:19:29.490Z,8.74
2023-05-25T02:21:56.029Z,8.65
2023-05-25T02:24:24.467Z,8.61
2023-05-25T02:26:51.648Z,8.61
2023-05-25T02:29:18.302Z,8.57
2023-05-25T02:31:44.795Z,8.55
2023-05-25T02:34:11.694Z,8.55
2023-05-25T02:36:39.377Z,8.53
2023-05-25T02:39:05.801Z,8.50
2023-05-25T02:41:32.166Z,8.45
2023-05-25T02:43:59.316Z,8.40
2023-05-25T02:46:25.961Z,8.32
2023-05-25T02:48:52.440Z,8.24
2023-05-25T02:51:18.789Z,8.16
2023-05-25T02:53:45.550Z,8.13
2023-05-25T02:56:11.958Z,8.17
2023-05-25T02:58:38.643Z,8.13
2023-05-25T03:01:05.886Z,8.12
2023-05-25T03:03:32.310Z,8.08
2023-05-25T03:05:58.759Z,8.08
2023-05-25T03:08:25.393Z,8.07
2023-05-25T03:10:51.745Z,8.09
2023-05-25T03:13:18.118Z,8.08
2023-05-25T03:15:44.978Z,8.03
2023-05-25T03:18:11.605Z,7.97
2023-05-25T03:20:38.465Z,7.90
2023-05-25T03:23:04.989Z,7.87
2023-05-25T03:25:31.396Z,7.83
2023-05-25T03:27:57.794Z,7.77
2023-05-25T03:30:24.356Z,7.68
2023-05-25T03:32:50.864Z,7.62
2023-05-25T03:35:17.293Z,7.56
2023-05-25T03:37:43.841Z,7.49
2023-05-25T03:40:11.446Z,7.44
2023-05-25T03:42:38.185Z,7.45
2023-05-25T03:45:05.885Z,7.50
2023-05-25T03:47:32.844Z,7.51
2023-05-25T03:49:59.385Z,7.52
2023-05-25T03:52:25.780Z,7.52
2023-05-25T03:54:52.320Z,7.52
2023-05-25T03:57:18.689Z,7.52
2023-05-25T03:59:45.266Z,7.56
2023-05-25T04:02:11.715Z,7.59
2023-05-25T04:04:41.838Z,7.59
2023-05-25T04:07:08.525Z,7.57
2023-05-25T04:09:34.925Z,7.59
2023-05-25T04:12:02.176Z,7.56
2023-05-25T04:14:28.688Z,7.53
2023-05-25T04:16:55.077Z,7.49
2023-05-25T04:19:21.602Z,7.46
2023-05-25T04:21:47.983Z,7.46
2023-05-25T04:24:14.401Z,7.46
2023-05-25T04:26:41.428Z,7.50
2023-05-25T04:29:09.991Z,7.57
2023-05-25T04:31:36.537Z,7.63
2023-05-25T04:34:04.023Z,7.68
2023-05-25T04:36:32.587Z,7.72
2023-05-25T04:39:02.637Z,7.75
2023-05-25T04:41:29.904Z,7.79
2023-05-25T04:44:05.983Z,7.80
2023-05-25T04:46:37.253Z,7.82
2023-05-25T04:49:05.147Z,7.85
2023-05-25T04:51:32.342Z,7.88
2023-05-25T04:53:59.596Z,7.93
2023-05-25T04:56:26.435Z,7.96
2023-05-25T04:58:53.668Z,8.04
2023-05-25T05:01:20.595Z,8.12
2023-05-25T05:03:47.117Z,8.21
2023-05-25T05:06:13.518Z,8.27
2023-05-25T05:08:39.883Z,8.32
2023-05-25T05:11:06.342Z,8.38
2023-05-25T05:13:32.751Z,8.44
2023-05-25T05:15:59.156Z,8.51
2023-05-25T05:18:25.532Z,8.56
2023-05-25T05:20:51.915Z,8.67
2023-05-25T05:23:18.384Z,8.77
2023-05-25T05:25:46.237Z,8.89
2023-05-25T05:28:12.892Z,8.97
2023-05-25T05:30:39.255Z,9.10
2023-05-25T05:33:05.732Z,9.23
2023-05-25T05:35:32.136Z,9.44
2023-05-25T05:37:58.540Z,9.63
2023-05-25T05:40:26.593Z,9.78
2023-05-25T05:42:52.941Z,9.95
2023-05-25T05:45:19.289Z,10.12
2023-05-25T05:47:45.777Z,10.32
2023-05-25T05:50:12.215Z,10.62
2023-05-25T05:52:38.557Z,10.79
2023-05-25T05:55:06.281Z,10.98
2023-05-25T05:57:32.750Z,11.33
2023-05-25T05:59:59.152Z,11.74
2023-05-25T06:02:25.815Z,12.37
2023-05-25T06:04:52.223Z,13.04
2023-05-25T06:07:18.676Z,13.52
2023-05-25T06:09:45.103Z,13.67
2023-05-25T06:12:11.449Z,13.49
2023-05-25T06:14:37.856Z,13.61
2023-05-25T06:17:04.528Z,13.89
2023-05-25T06:19:31.114Z,14.52
2023-05-25T06:21:57.481Z,15.38
2023-05-25T06:24:23.853Z,14.85
2023-05-25T06:26:50.447Z,14.36
2023-05-25T06:29:17.168Z,14.18
2023-05-25T06:31:46.205Z,14.37
2023-05-25T06:34:12.817Z,14.59
2023-05-25T06:36:39.300Z,15.74
2023-05-25T06:39:05.717Z,16.63
2023-05-25T06:41:32.440Z,16.89
2023-05-25T06:43:58.825Z,17.08
2023-05-25T06:46:25.511Z,17.93
2023-05-25T06:48:52.006Z,18.54
2023-05-25T06:51:18.489Z,18.21
2023-05-25T06:53:44.950Z,17.95
2023-05-25T06:56:11.541Z,17.76
2023-05-25T06:58:37.973Z,19.05
2023-05-25T07:01:04.441Z,19.33
2023-05-25T07:03:30.881Z,19.61
2023-05-25T07:05:58.097Z,19.37
2023-05-25T07:08:24.522Z,18.64
2023-05-25T07:10:50.965Z,18.63
2023-05-25T07:13:17.457Z,19.20
2023-05-25T07:15:44.531Z,19.21
2023-05-25T07:18:12.427Z,19.61
2023-05-25T07:20:43.894Z,19.84
2023-05-25T07:23:11.568Z,19.14
2023-05-25T07:25:38.850Z,19.29
2023-05-25T07:28:05.507Z,19.95
2023-05-25T07:30:31.943Z,20.76
2023-05-25T07:32:58.847Z,21.35
2023-05-25T07:35:25.741Z,20.67
2023-05-25T07:37:59.363Z,20.25
2023-05-25T07:40:26.245Z,20.15
2023-05-25T07:42:53.429Z,20.83
2023-05-25T07:45:20.884Z,20.58
2023-05-25T07:47:47.639Z,19.94
2023-05-25T07:50:14.989Z,19.05
2023-05-25T07:52:41.645Z,18.55
2023-05-25T07:55:08.651Z,18.27
2023-05-25T07:57:35.553Z,17.93
2023-05-25T08:00:02.685Z,17.66
2023-05-25T08:02:29.095Z,17.77
2023-05-25T08:04:56.141Z,17.67
2023-05-25T08:07:24.822Z,17.67
2023-05-25T08:09:51.180Z,17.51
2023-05-25T08:14:46.795Z,17.49
2023-05-25T08:17:13.437Z,17.39
2023-05-25T08:19:39.940Z,17.30
2023-05-25T08:22:06.293Z,17.28
2023-05-25T08:24:32.645Z,17.35
2023-05-25T08:26:59.376Z,17.29
2023-05-25T08:29:25.821Z,17.21
2023-05-25T08:31:53.353Z,17.31
2023-05-25T08:34:20.212Z,17.43
2023-05-25T08:36:46.793Z,17.57
2023-05-25T08:39:13.371Z,17.47
2023-05-25T08:41:42.893Z,17.42
2023-05-25T08:44:14.530Z,17.52
2023-05-25T08:46:41.644Z,17.54
2023-05-25T08:49:13.258Z,17.63
2023-05-25T08:51:49.521Z,17.62
2023-05-25T08:57:21.112Z,17.33
2023-05-25T08:59:54.895Z,17.55
2023-05-25T09:02:29.338Z,17.67
2023-05-25T09:04:56.295Z,17.93
2023-05-25T09:07:23.829Z,17.87
2023-05-25T09:09:50.391Z,17.89
2023-05-25T09:12:17.320Z,18.12
2023-05-25T09:14:47.846Z,18.18
2023-05-25T09:17:15.911Z,17.88
2023-05-25T09:19:43.662Z,17.74
2023-05-25T09:22:16.807Z,17.57
2023-05-25T09:24:44.579Z,17.36
2023-05-25T09:27:12.563Z,17.60
2023-05-25T09:29:40.076Z,17.68
2023-05-25T09:32:07.807Z,17.45
2023-05-25T09:34:34.555Z,17.53
2023-05-25T09:37:03.634Z,17.51
2023-05-25T09:39:30.461Z,17.41
2023-05-25T09:41:57.654Z,17.33
2023-05-25T09:44:24.115Z,17.34
2023-05-25T09:46:51.031Z,17.75
2023-05-25T09:49:17.460Z,18.17
2023-05-25T09:51:43.980Z,18.45
2023-05-25T09:54:11.197Z,18.41
2023-05-25T09:56:37.717Z,18.16
2023-05-25T09:59:04.134Z,18.17
2023-05-25T10:01:33.153Z,18.08
2023-05-25T10:04:10.299Z,17.76
2023-05-25T10:06:39.021Z,17.63
2023-05-25T10:09:06.753Z,17.55
2023-05-25T10:11:35.023Z,17.56
2023-05-25T10:14:06.594Z,17.62
2023-05-25T10:16:34.434Z,17.82
2023-05-25T10:19:16.140Z,17.78
2023-05-25T10:21:47.403Z,18.02
2023-05-25T10:24:34.244Z,18.30
2023-05-25T10:27:14.528Z,18.40
2023-05-25T10:29:52.305Z,18.34
2023-05-25T10:32:19.236Z,18.30
2023-05-25T10:34:46.727Z,18.32
2023-05-25T10:37:14.714Z,18.29
2023-05-25T10:39:43.778Z,18.33
2023-05-25T10:42:11.289Z,18.34
2023-05-25T10:44:38.646Z,18.39
2023-05-25T10:47:05.867Z,18.38
2023-05-25T10:49:35.931Z,18.33
2023-05-25T10:52:03.607Z,18.37
2023-05-25T10:54:32.549Z,18.42
2023-05-25T10:57:10.156Z,18.56
2023-05-25T10:59:40.674Z,18.79
2023-05-25T11:02:09.365Z,18.75
2023-05-25T11:04:37.646Z,18.50
2023-05-25T11:07:08.218Z,18.40
2023-05-25T11:09:38.698Z,18.50
2023-05-25T11:12:06.995Z,18.51
2023-05-25T11:14:37.131Z,18.63
2023-05-25T11:17:07.974Z,18.71
2023-05-25T11:19:51.377Z,18.77
2023-05-25T11:22:21.115Z,18.80
2023-05-25T11:24:48.866Z,18.78
2023-05-25T11:27:15.447Z,18.72
2023-05-25T11:29:42.103Z,18.62
2023-05-25T11:32:14.812Z,18.66
2023-05-25T11:34:41.928Z,18.74
2023-05-25T11:37:10.456Z,18.79
2023-05-25T11:39:38.627Z,18.65
2023-05-25T11:42:07.318Z,18.47
2023-05-25T11:44:36.694Z,18.40
2023-05-25T11:47:08.697Z,18.40
2023-05-25T11:49:41.783Z,18.57
2023-05-25T11:52:08.798Z,18.50
2023-05-25T11:54:35.732Z,18.55
2023-05-25T11:57:03.058Z,18.67
2023-05-25T11:59:32.532Z,18.87
2023-05-25T12:02:03.828Z,18.88
2023-05-25T12:04:35.366Z,18.93
2023-05-25T12:07:06.937Z,18.79
2023-05-25T12:09:34.118Z,18.84
2023-05-25T12:12:03.103Z,19.42
2023-05-25T12:14:30.197Z,19.84
2023-05-25T12:16:57.724Z,19.62
2023-05-25T12:19:24.319Z,19.44
2023-05-25T12:21:51.181Z,19.15
2023-05-25T12:24:18.690Z,19.39
2023-05-25T12:26:59.590Z,19.70
2023-05-25T12:29:26.245Z,20.06
2023-05-25T12:31:52.794Z,20.06
2023-05-25T12:34:22.069Z,20.12
2023-05-25T12:36:53.437Z,20.42
2023-05-25T12:39:29.037Z,20.47
2023-05-25T12:41:56.395Z,20.19
2023-05-25T12:44:24.056Z,20.04
2023-05-25T12:46:52.557Z,19.80
2023-05-25T12:49:25.941Z,19.71
2023-05-25T12:51:52.681Z,19.67
2023-05-25T12:54:36.639Z,19.76
2023-05-25T12:57:07.715Z,19.59
2023-05-25T12:59:35.517Z,19.69
2023-05-25T13:02:03.130Z,19.71
2023-05-25T13:04:29.652Z,20.16
2023-05-25T13:06:56.192Z,20.58
2023-05-25T13:09:29.066Z,20.18
2023-05-25T13:11:56.559Z,20.05
2023-05-25T13:14:23.733Z,19.84
2023-05-25T13:16:51.489Z,19.71
2023-05-25T13:19:19.184Z,19.49
2023-05-25T13:21:45.896Z,19.38
2023-05-25T13:24:12.626Z,19.24
2023-05-25T13:26:39.250Z,19.60
2023-05-25T13:29:05.883Z,20.08
2023-05-25T13:31:32.427Z,19.85
2023-05-25T13:33:59.076Z,19.85
2023-05-25T13:36:26.142Z,19.71
2023-05-25T13:38:52.762Z,19.58
2023-05-25T13:41:19.190Z,19.58
2023-05-25T13:43:45.830Z,19.42
2023-05-25T13:46:25.892Z,19.25
2023-05-25T13:48:58.608Z,19.20
2023-05-25T13:51:25.059Z,19.00
2023-05-25T13:53:51.479Z,19.06
2023-05-25T13:56:17.974Z,19.16
2023-05-25T13:58:44.579Z,19.07
2023-05-25T14:01:11.158Z,19.51
2023-05-25T14:03:38.912Z,19.98
2023-05-25T14:06:05.869Z,19.76
2023-05-25T14:08:32.284Z,19.54
2023-05-25T14:10:58.661Z,19.42
2023-05-25T14:13:25.104Z,19.45
2023-05-25T14:15:51.637Z,19.31
2023-05-25T14:18:18.072Z,19.13
2023-05-25T14:20:44.837Z,19.03
2023-05-25T14:23:14.285Z,19.49
2023-05-25T14:25:42.494Z,19.56
2023-05-25T14:28:09.083Z,19.65
2023-05-25T14:30:35.569Z,19.30
2023-05-25T14:33:01.977Z,19.43
2023-05-25T14:35:29.823Z,19.94
2023-05-25T14:37:56.197Z,19.94
2023-05-25T14:40:22.671Z,19.54
2023-05-25T14:42:49.114Z,19.42
2023-05-25T14:45:16.192Z,19.52
2023-05-25T14:47:42.908Z,19.87
2023-05-25T14:50:09.540Z,19.93
2023-05-25T14:52:37.484Z,19.97
2023-05-25T14:55:04.313Z,20.23
2023-05-25T14:57:31.394Z,20.41
2023-05-25T14:59:57.837Z,20.46
2023-05-25T15:02:24.571Z,20.55
2023-05-25T15:04:51.123Z,20.46
2023-05-25T15:07:17.616Z,20.16
2023-05-25T15:09:45.180Z,19.84
2023-05-25T15:12:11.594Z,19.85
2023-05-25T15:14:41.108Z,19.84
2023-05-25T15:17:11.545Z,20.02
2023-05-25T15:19:38.128Z,20.23
2023-05-25T15:22:04.674Z,20.13
2023-05-25T15:24:31.115Z,20.06
2023-05-25T15:26:57.630Z,20.01
2023-05-25T15:29:24.239Z,19.92
2023-05-25T15:31:52.873Z,19.81
2023-05-25T15:34:20.187Z,19.88
2023-05-25T15:36:46.683Z,20.12
2023-05-25T15:39:15.240Z,20.01
2023-05-25T15:41:41.984Z,20.03
2023-05-25T15:44:12.363Z,20.05
2023-05-25T15:46:40.933Z,20.10
2023-05-25T15:49:11.411Z,20.17
2023-05-25T15:51:41.512Z,19.89
2023-05-25T15:54:09.962Z,19.69
2023-05-25T15:56:38.674Z,19.60
2023-05-25T15:59:05.430Z,19.51
2023-05-25T16:01:34.216Z,19.56
2023-05-25T16:04:02.783Z,19.32
2023-05-25T16:06:31.861Z,19.08
2023-05-25T16:08:59.537Z,19.03
2023-05-25T16:11:28.160Z,19.08
2023-05-25T16:13:55.619Z,19.11
2023-05-25T16:16:24.925Z,19.12
2023-05-25T16:18:51.712Z,19.11
2023-05-25T16:21:18.171Z,18.95
2023-05-25T16:23:44.675Z,18.73
2023-05-25T16:26:11.297Z,18.64
2023-05-25T16:28:37.973Z,18.52
2023-05-25T16:31:05.723Z,18.47
2023-05-25T16:33:34.738Z,18.44
2023-05-25T16:36:01.962Z,18.47
2023-05-25T16:38:28.415Z,18.38
2023-05-25T16:40:54.931Z,18.40
2023-05-25T16:43:25.242Z,18.32
2023-05-25T16:45:52.333Z,18.23
2023-05-25T16:48:20.305Z,18.17
2023-05-25T16:50:48.027Z,18.10
2023-05-25T16:53:14.752Z,18.05
2023-05-25T16:55:41.298Z,18.13
2023-05-25T16:58:07.750Z,18.13
2023-05-25T17:00:34.149Z,18.16
2023-05-25T17:03:00.678Z,18.23
2023-05-25T17:05:27.404Z,18.02
2023-05-25T17:07:53.846Z,17.94
2023-05-25T17:10:20.356Z,17.92
2023-05-25T17:12:46.718Z,17.88
2023-05-25T17:15:15.884Z,17.92
2023-05-25T17:17:43.310Z,17.90
2023-05-25T17:20:10.943Z,17.86
2023-05-25T17:22:38.050Z,17.68
2023-05-25T17:25:06.089Z,17.60
2023-05-25T17:27:32.561Z,17.55
2023-05-25T17:30:01.305Z,17.39
2023-05-25T17:32:27.807Z,17.32
2023-05-25T17:34:54.349Z,17.32
2023-05-25T17:37:21.281Z,17.17
2023-05-25T17:39:49.157Z,17.06
2023-05-25T17:42:16.924Z,16.89
2023-05-25T17:44:44.566Z,16.85
2023-05-25T17:47:11.528Z,16.76
2023-05-25T17:49:38.024Z,16.79
2023-05-25T17:52:04.698Z,16.70
2023-05-25T17:54:31.104Z,16.69
2023-05-25T17:56:57.651Z,16.66
2023-05-25T17:59:24.098Z,16.57
2023-05-25T18:01:51.509Z,16.48
2023-05-25T18:04:19.436Z,16.35
2023-05-25T18:06:47.572Z,16.21
2023-05-25T18:09:14.125Z,16.14
2023-05-25T18:11:41.060Z,16.11
2023-05-25T18:14:07.737Z,16.08
2023-05-25T18:16:39.332Z,16.04
2023-05-25T18:19:06.737Z,15.99
2023-05-25T18:21:37.009Z,15.98
2023-05-25T18:24:03.957Z,15.93
2023-05-25T18:26:30.423Z,15.89
2023-05-25T18:28:56.822Z,15.83
2023-05-25T18:31:23.313Z,15.78
2023-05-25T18:33:51.507Z,15.72
2023-05-25T18:38:58.881Z,15.56
2023-05-25T18:41:26.771Z,15.51
2023-05-25T18:43:53.275Z,15.44
2023-05-25T18:46:19.948Z,15.35
2023-05-25T18:48:46.527Z,15.25
2023-05-25T18:51:13.292Z,15.18
2023-05-25T18:53:41.581Z,15.10
2023-05-25T18:56:08.793Z,15.01
2023-05-25T18:58:35.210Z,14.97
2023-05-25T19:01:01.634Z,14.85
2023-05-25T19:03:28.209Z,14.79
2023-05-25T19:05:54.717Z,14.71
2023-05-25T19:08:21.317Z,14.69
2023-05-25T19:10:47.726Z,14.61
2023-05-25T19:13:14.218Z,14.50
2023-05-25T19:15:40.680Z,14.47
2023-05-25T19:18:07.079Z,14.45
2023-05-25T19:20:33.843Z,14.35
2023-05-25T19:23:00.583Z,14.29
2023-05-25T19:25:27.007Z,14.26
2023-05-25T19:27:53.561Z,14.19
2023-05-25T19:30:20.310Z,14.11
2023-05-25T19:32:46.722Z,14.08
2023-05-25T19:35:13.145Z,13.98
2023-05-25T19:37:41.213Z,13.93
2023-05-25T19:40:09.790Z,13.88
2023-05-25T19:42:36.727Z,13.82
2023-05-25T19:45:03.645Z,13.75
2023-05-25T19:47:30.634Z,13.73
2023-05-25T19:49:57.088Z,13.65
2023-05-25T19:52:23.497Z,13.59
2023-05-25T19:54:50.795Z,13.53
2023-05-25T19:57:17.838Z,13.47
2023-05-25T19:59:44.437Z,13.43
2023-05-25T20:02:11.723Z,13.35
2023-05-25T20:04:41.048Z,13.29
2023-05-25T20:07:07.785Z,13.21
2023-05-25T20:09:35.097Z,13.15
2023-05-25T20:12:02.439Z,13.07
2023-05-25T20:14:30.127Z,13.03
2023-05-25T20:16:56.618Z,12.99
2023-05-25T20:19:23.248Z,12.93
2023-05-25T20:21:51.038Z,12.87
2023-05-25T20:24:17.860Z,12.81
2023-05-25T20:26:44.635Z,12.74
2023-05-25T20:29:11.049Z,12.70
2023-05-25T20:31:37.536Z,12.66
2023-05-25T20:34:04.047Z,12.63
2023-05-25T20:36:32.164Z,12.56
2023-05-25T20:38:59.058Z,12.53
2023-05-25T20:41:27.753Z,12.49
2023-05-25T20:43:54.415Z,12.43
2023-05-25T20:46:20.968Z,12.36
2023-05-25T20:48:47.405Z,12.33
2023-05-25T20:51:14.417Z,12.28
2023-05-25T20:53:40.912Z,12.25
2023-05-25T20:56:07.312Z,12.24
2023-05-25T20:58:38.967Z,12.22
2023-05-25T21:01:05.978Z,12.18
2023-05-25T21:03:32.504Z,12.14
2023-05-25T21:05:59.151Z,12.09
2023-05-25T21:08:25.548Z,12.06
2023-05-25T21:10:52.137Z,12.01
2023-05-25T21:13:18.613Z,11.96
2023-05-25T21:15:45.293Z,11.88
2023-05-25T21:18:11.791Z,11.83
2023-05-25T21:20:38.520Z,11.80
2023-05-25T21:23:06.322Z,11.75
2023-05-25T21:25:32.705Z,11.72
2023-05-25T21:27:59.365Z,11.66
2023-05-25T21:30:26.481Z,11.62
2023-05-25T21:32:52.941Z,11.58
2023-05-25T21:35:19.641Z,11.59
2023-05-25T21:37:46.455Z,11.55
2023-05-25T21:40:12.991Z,11.47
2023-05-25T21:42:39.414Z,11.45
2023-05-25T21:45:06.274Z,11.45
2023-05-25T21:47:32.738Z,11.42
2023-05-25T21:49:59.279Z,11.34
2023-05-25T21:52:25.676Z,11.30
2023-05-25T21:54:52.190Z,11.26
2023-05-25T21:57:18.774Z,11.23
2023-05-25T21:59:45.350Z,11.16
2023-05-25T22:02:11.810Z,11.11
2023-05-25T22:04:38.300Z,11.09
2023-05-25T22:07:04.720Z,11.05
2023-05-25T22:09:31.706Z,11.03
2023-05-25T22:11:58.107Z,11.02
2023-05-25T22:14:24.478Z,10.99
2023-05-25T22:16:51.026Z,10.92
2023-05-25T22:19:17.592Z,10.91
2023-05-25T22:21:44.013Z,10.88
2023-05-25T22:24:10.401Z,10.83
2023-05-25T22:26:36.899Z,10.82
2023-05-25T22:29:03.308Z,10.79
2023-05-25T22:31:29.777Z,10.75
2023-05-25T22:33:56.215Z,10.74
2023-05-25T22:36:23.720Z,10.73
2023-05-25T22:38:50.190Z,10.68
2023-05-25T22:41:16.711Z,10.66
2023-05-25T22:43:43.512Z,10.63
2023-05-25T22:46:10.043Z,10.59
2023-05-25T22:48:36.489Z,10.55
2023-05-25T22:51:03.097Z,10.51
2023-05-25T22:53:29.464Z,10.51
2023-05-25T22:55:55.895Z,10.52
2023-05-25T22:58:22.297Z,10.51
2023-05-25T23:00:48.694Z,10.44
2023-05-25T23:03:15.449Z,10.43
2023-05-25T23:05:42.002Z,10.42
2023-05-25T23:08:08.537Z,10.40
2023-05-25T23:10:34.996Z,10.36
2023-05-25T23:13:02.228Z,10.35
2023-05-25T23:15:30.534Z,10.32
2023-05-25T23:17:57.039Z,10.27
2023-05-25T23:20:23.508Z,10.24
2023-05-25T23:22:49.977Z,10.23
2023-05-25T23:25:17.556Z,10.20
2023-05-25T23:27:44.298Z,10.15
2023-05-25T23:30:11.202Z,10.11
2023-05-25T23:32:37.686Z,10.08
2023-05-25T23:35:04.479Z,10.05
2023-05-25T23:37:30.928Z,10.03
2023-05-25T23:39:57.349Z,10.00
2023-05-25T23:42:23.911Z,9.93
2023-05-25T23:44:50.300Z,9.89
2023-05-25T23:47:16.716Z,9.89
2023-05-25T23:49:43.105Z,9.84
2023-05-25T23:52:09.510Z,9.80
2023-05-25T23:54:36.049Z,9.80
2023-05-25T23:57:02.472Z,9.77
2023-05-25T23:59:28.864Z,9.74
